sensor_id;sensor_type;location;lat;lon;timestamp;P1;durP1;ratioP1;P2;durP2;ratioP2
30303;SDS011;17112;48.636;10.152;2024-02-15T00:01:55;7.22;;;3.58;;
30303;SDS011;17112;48.636;10.152;2024-02-15T00:04:21;6.00;;;3.90;;
30303;SDS011;17112;48.636;10.152;2024-02-15T00:06:46;6.57;;;3.47;;
30303;SDS011;17112;48.636;10.152;2024-02-15T00:09:12;5.68;;;3.72;;
30303;SDS011;17112;48.636;10.152;2024-02-15T00:11:38;4.75;;;3.40;;
30303;SDS011;17112;48.636;10.152;2024-02-15T00:14:04;7.38;;;3.72;;
30303;SDS011;17112;48.636;10.152;2024-02-15T00:16:30;5.22;;;3.55;;
30303;SDS011;17112;48.636;10.152;2024-02-15T00:18:55;4.95;;;3.33;;
30303;SDS011;17112;48.636;10.152;2024-02-15T00:21:21;6.72;;;4.03;;
30303;SDS011;17112;48.636;10.152;2024-02-15T00:23:48;6.30;;;4.15;;
30303;SDS011;17112;48.636;10.152;2024-02-15T00:26:14;7.70;;;3.55;;
30303;SDS011;17112;48.636;10.152;2024-02-15T00:28:43;5.80;;;3.80;;
30303;SDS011;17112;48.636;10.152;2024-02-15T00:31:08;6.47;;;3.85;;
30303;SDS011;17112;48.636;10.152;2024-02-15T00:33:34;5.72;;;3.70;;
30303;SDS011;17112;48.636;10.152;2024-02-15T00:36:03;8.07;;;3.83;;
30303;SDS011;17112;48.636;10.152;2024-02-15T00:38:31;5.72;;;3.83;;
30303;SDS011;17112;48.636;10.152;2024-02-15T00:40:57;9.90;;;5.15;;
30303;SDS011;17112;48.636;10.152;2024-02-15T00:43:28;5.78;;;3.88;;
30303;SDS011;17112;48.636;10.152;2024-02-15T00:45:54;7.28;;;4.00;;
30303;SDS011;17112;48.636;10.152;2024-02-15T00:48:21;4.93;;;3.60;;
30303;SDS011;17112;48.636;10.152;2024-02-15T00:50:50;5.68;;;3.58;;
30303;SDS011;17112;48.636;10.152;2024-02-15T00:53:16;7.95;;;3.83;;
30303;SDS011;17112;48.636;10.152;2024-02-15T00:55:41;4.63;;;3.28;;
30303;SDS011;17112;48.636;10.152;2024-02-15T00:58:07;6.00;;;2.95;;
30303;SDS011;17112;48.636;10.152;2024-02-15T01:00:33;5.45;;;3.30;;
30303;SDS011;17112;48.636;10.152;2024-02-15T01:02:58;4.45;;;3.22;;
30303;SDS011;17112;48.636;10.152;2024-02-15T01:05:24;5.60;;;3.00;;
30303;SDS011;17112;48.636;10.152;2024-02-15T01:07:49;6.72;;;3.63;;
30303;SDS011;17112;48.636;10.152;2024-02-15T01:10:15;6.10;;;3.78;;
30303;SDS011;17112;48.636;10.152;2024-02-15T01:12:41;5.72;;;3.67;;
30303;SDS011;17112;48.636;10.152;2024-02-15T01:15:06;5.40;;;3.55;;
30303;SDS011;17112;48.636;10.152;2024-02-15T01:17:32;4.57;;;3.53;;
30303;SDS011;17112;48.636;10.152;2024-02-15T01:19:58;4.85;;;3.10;;
30303;SDS011;17112;48.636;10.152;2024-02-15T01:22:24;5.25;;;3.30;;
30303;SDS011;17112;48.636;10.152;2024-02-15T01:24:52;4.88;;;3.30;;
30303;SDS011;17112;48.636;10.152;2024-02-15T01:27:18;5.72;;;3.13;;
30303;SDS011;17112;48.636;10.152;2024-02-15T01:29:43;6.88;;;3.42;;
30303;SDS011;17112;48.636;10.152;2024-02-15T01:32:09;5.70;;;3.17;;
30303;SDS011;17112;48.636;10.152;2024-02-15T01:34:35;4.65;;;3.20;;
30303;SDS011;17112;48.636;10.152;2024-02-15T01:37:00;4.55;;;3.10;;
30303;SDS011;17112;48.636;10.152;2024-02-15T01:39:26;4.63;;;3.33;;
30303;SDS011;17112;48.636;10.152;2024-02-15T01:41:52;6.00;;;3.10;;
30303;SDS011;17112;48.636;10.152;2024-02-15T01:44:21;5.00;;;3.17;;
30303;SDS011;17112;48.636;10.152;2024-02-15T01:46:49;4.13;;;3.10;;
30303;SDS011;17112;48.636;10.152;2024-02-15T01:49:18;4.03;;;2.75;;
30303;SDS011;17112;48.636;10.152;2024-02-15T01:51:45;5.97;;;3.20;;
30303;SDS011;17112;48.636;10.152;2024-02-15T01:54:11;5.30;;;3.25;;
30303;SDS011;17112;48.636;10.152;2024-02-15T01:56:38;6.53;;;3.35;;
30303;SDS011;17112;48.636;10.152;2024-02-15T01:59:04;4.47;;;2.95;;
30303;SDS011;17112;48.636;10.152;2024-02-15T02:01:31;3.50;;;2.60;;
30303;SDS011;17112;48.636;10.152;2024-02-15T02:03:58;4.57;;;3.20;;
30303;SDS011;17112;48.636;10.152;2024-02-15T02:06:24;4.25;;;3.10;;
30303;SDS011;17112;48.636;10.152;2024-02-15T02:08:51;3.53;;;2.80;;
30303;SDS011;17112;48.636;10.152;2024-02-15T02:11:17;4.15;;;2.90;;
30303;SDS011;17112;48.636;10.152;2024-02-15T02:13:43;4.28;;;3.00;;
30303;SDS011;17112;48.636;10.152;2024-02-15T02:16:27;5.68;;;2.92;;
30303;SDS011;17112;48.636;10.152;2024-02-15T02:18:54;4.32;;;2.95;;
30303;SDS011;17112;48.636;10.152;2024-02-15T02:21:23;4.18;;;3.00;;
30303;SDS011;17112;48.636;10.152;2024-02-15T02:23:57;5.32;;;2.70;;
30303;SDS011;17112;48.636;10.152;2024-02-15T02:26:23;5.30;;;2.72;;
30303;SDS011;17112;48.636;10.152;2024-02-15T02:28:50;6.47;;;2.75;;
30303;SDS011;17112;48.636;10.152;2024-02-15T02:31:19;4.50;;;2.58;;
30303;SDS011;17112;48.636;10.152;2024-02-15T02:33:47;3.78;;;2.70;;
30303;SDS011;17112;48.636;10.152;2024-02-15T02:36:18;2.95;;;2.25;;
30303;SDS011;17112;48.636;10.152;2024-02-15T02:38:44;3.90;;;2.60;;
30303;SDS011;17112;48.636;10.152;2024-02-15T02:41:13;4.38;;;2.63;;
30303;SDS011;17112;48.636;10.152;2024-02-15T02:43:42;4.35;;;2.78;;
30303;SDS011;17112;48.636;10.152;2024-02-15T02:46:10;5.68;;;2.88;;
30303;SDS011;17112;48.636;10.152;2024-02-15T02:48:39;3.53;;;2.78;;
30303;SDS011;17112;48.636;10.152;2024-02-15T02:51:06;5.05;;;2.70;;
30303;SDS011;17112;48.636;10.152;2024-02-15T02:53:32;4.63;;;2.70;;
30303;SDS011;17112;48.636;10.152;2024-02-15T02:55:57;4.05;;;2.53;;
30303;SDS011;17112;48.636;10.152;2024-02-15T02:58:23;6.53;;;2.42;;
30303;SDS011;17112;48.636;10.152;2024-02-15T03:00:49;3.72;;;2.42;;
30303;SDS011;17112;48.636;10.152;2024-02-15T03:03:15;2.80;;;2.08;;
30303;SDS011;17112;48.636;10.152;2024-02-15T03:05:41;5.25;;;2.55;;
30303;SDS011;17112;48.636;10.152;2024-02-15T03:08:11;3.25;;;2.50;;
30303;SDS011;17112;48.636;10.152;2024-02-15T03:10:38;5.50;;;2.47;;
30303;SDS011;17112;48.636;10.152;2024-02-15T03:13:05;3.45;;;2.63;;
30303;SDS011;17112;48.636;10.152;2024-02-15T03:15:31;3.72;;;2.97;;
30303;SDS011;17112;48.636;10.152;2024-02-15T03:17:58;4.03;;;2.85;;
30303;SDS011;17112;48.636;10.152;2024-02-15T03:20:23;3.75;;;2.60;;
30303;SDS011;17112;48.636;10.152;2024-02-15T03:23:10;3.13;;;2.50;;
30303;SDS011;17112;48.636;10.152;2024-02-15T03:25:36;3.63;;;2.67;;
30303;SDS011;17112;48.636;10.152;2024-02-15T03:28:02;4.95;;;2.85;;
30303;SDS011;17112;48.636;10.152;2024-02-15T03:30:29;4.22;;;2.88;;
30303;SDS011;17112;48.636;10.152;2024-02-15T03:32:56;6.97;;;2.90;;
30303;SDS011;17112;48.636;10.152;2024-02-15T03:35:24;6.30;;;3.20;;
30303;SDS011;17112;48.636;10.152;2024-02-15T03:37:51;5.95;;;2.70;;
30303;SDS011;17112;48.636;10.152;2024-02-15T03:40:18;3.80;;;2.65;;
30303;SDS011;17112;48.636;10.152;2024-02-15T03:42:45;8.20;;;2.92;;
30303;SDS011;17112;48.636;10.152;2024-02-15T03:45:12;4.13;;;2.67;;
30303;SDS011;17112;48.636;10.152;2024-02-15T03:47:38;4.13;;;2.67;;
30303;SDS011;17112;48.636;10.152;2024-02-15T03:50:04;5.15;;;2.55;;
30303;SDS011;17112;48.636;10.152;2024-02-15T03:52:31;5.75;;;2.60;;
30303;SDS011;17112;48.636;10.152;2024-02-15T03:54:57;3.40;;;2.50;;
30303;SDS011;17112;48.636;10.152;2024-02-15T03:57:24;2.92;;;2.30;;
30303;SDS011;17112;48.636;10.152;2024-02-15T03:59:50;4.05;;;2.67;;
30303;SDS011;17112;48.636;10.152;2024-02-15T04:02:20;3.60;;;2.70;;
30303;SDS011;17112;48.636;10.152;2024-02-15T04:04:48;3.38;;;2.80;;
30303;SDS011;17112;48.636;10.152;2024-02-15T04:07:19;5.10;;;2.80;;
30303;SDS011;17112;48.636;10.152;2024-02-15T04:09:45;4.97;;;2.75;;
30303;SDS011;17112;48.636;10.152;2024-02-15T04:12:11;5.30;;;2.70;;
30303;SDS011;17112;48.636;10.152;2024-02-15T04:14:39;3.65;;;2.50;;
30303;SDS011;17112;48.636;10.152;2024-02-15T04:17:14;5.57;;;2.90;;
30303;SDS011;17112;48.636;10.152;2024-02-15T04:19:44;2.83;;;2.60;;
30303;SDS011;17112;48.636;10.152;2024-02-15T04:22:11;6.00;;;3.00;;
30303;SDS011;17112;48.636;10.152;2024-02-15T04:24:37;4.80;;;2.65;;
30303;SDS011;17112;48.636;10.152;2024-02-15T04:27:09;4.10;;;2.20;;
30303;SDS011;17112;48.636;10.152;2024-02-15T04:29:38;4.25;;;2.35;;
30303;SDS011;17112;48.636;10.152;2024-02-15T04:32:09;4.03;;;2.22;;
30303;SDS011;17112;48.636;10.152;2024-02-15T04:34:38;4.20;;;1.90;;
30303;SDS011;17112;48.636;10.152;2024-02-15T04:37:04;2.72;;;2.25;;
30303;SDS011;17112;48.636;10.152;2024-02-15T04:39:36;4.05;;;2.25;;
30303;SDS011;17112;48.636;10.152;2024-02-15T04:42:02;2.47;;;2.10;;
30303;SDS011;17112;48.636;10.152;2024-02-15T04:44:29;7.47;;;2.28;;
30303;SDS011;17112;48.636;10.152;2024-02-15T04:47:00;5.68;;;2.30;;
30303;SDS011;17112;48.636;10.152;2024-02-15T04:49:26;2.88;;;2.35;;
30303;SDS011;17112;48.636;10.152;2024-02-15T04:51:54;3.38;;;2.40;;
30303;SDS011;17112;48.636;10.152;2024-02-15T04:54:19;5.70;;;2.40;;
30303;SDS011;17112;48.636;10.152;2024-02-15T04:56:45;3.63;;;2.78;;
30303;SDS011;17112;48.636;10.152;2024-02-15T04:59:11;4.47;;;2.70;;
30303;SDS011;17112;48.636;10.152;2024-02-15T05:01:40;4.28;;;2.42;;
30303;SDS011;17112;48.636;10.152;2024-02-15T05:04:10;4.07;;;2.88;;
30303;SDS011;17112;48.636;10.152;2024-02-15T05:06:37;4.60;;;3.10;;
30303;SDS011;17112;48.636;10.152;2024-02-15T05:09:03;6.72;;;2.88;;
30303;SDS011;17112;48.636;10.152;2024-02-15T05:11:35;3.92;;;2.90;;
30303;SDS011;17112;48.636;10.152;2024-02-15T05:14:11;4.40;;;2.80;;
30303;SDS011;17112;48.636;10.152;2024-02-15T05:16:37;4.63;;;2.88;;
30303;SDS011;17112;48.636;10.152;2024-02-15T05:19:11;2.90;;;2.50;;
30303;SDS011;17112;48.636;10.152;2024-02-15T05:21:37;3.30;;;2.72;;
30303;SDS011;17112;48.636;10.152;2024-02-15T05:24:03;3.58;;;2.53;;
30303;SDS011;17112;48.636;10.152;2024-02-15T05:26:29;2.75;;;2.28;;
30303;SDS011;17112;48.636;10.152;2024-02-15T05:28:55;4.03;;;2.53;;
30303;SDS011;17112;48.636;10.152;2024-02-15T05:31:21;2.80;;;2.38;;
30303;SDS011;17112;48.636;10.152;2024-02-15T05:33:50;3.28;;;2.83;;
30303;SDS011;17112;48.636;10.152;2024-02-15T05:36:18;4.45;;;2.63;;
30303;SDS011;17112;48.636;10.152;2024-02-15T05:38:47;3.38;;;2.25;;
30303;SDS011;17112;48.636;10.152;2024-02-15T05:41:13;4.53;;;2.60;;
30303;SDS011;17112;48.636;10.152;2024-02-15T05:43:39;4.93;;;2.60;;
30303;SDS011;17112;48.636;10.152;2024-02-15T05:46:07;3.45;;;2.63;;
30303;SDS011;17112;48.636;10.152;2024-02-15T05:48:34;3.80;;;2.70;;
30303;SDS011;17112;48.636;10.152;2024-02-15T05:51:01;3.00;;;2.45;;
30303;SDS011;17112;48.636;10.152;2024-02-15T05:53:27;3.67;;;2.30;;
30303;SDS011;17112;48.636;10.152;2024-02-15T05:55:53;3.75;;;2.60;;
30303;SDS011;17112;48.636;10.152;2024-02-15T05:58:20;3.72;;;3.35;;
30303;SDS011;17112;48.636;10.152;2024-02-15T06:00:46;5.07;;;3.90;;
30303;SDS011;17112;48.636;10.152;2024-02-15T06:03:14;5.80;;;3.97;;
30303;SDS011;17112;48.636;10.152;2024-02-15T06:05:43;6.85;;;4.82;;
30303;SDS011;17112;48.636;10.152;2024-02-15T06:08:10;7.85;;;5.10;;
30303;SDS011;17112;48.636;10.152;2024-02-15T06:10:39;6.63;;;4.78;;
30303;SDS011;17112;48.636;10.152;2024-02-15T06:13:07;5.93;;;4.07;;
30303;SDS011;17112;48.636;10.152;2024-02-15T06:15:34;7.43;;;4.20;;
30303;SDS011;17112;48.636;10.152;2024-02-15T06:18:01;6.55;;;4.32;;
30303;SDS011;17112;48.636;10.152;2024-02-15T06:20:29;8.20;;;4.95;;
30303;SDS011;17112;48.636;10.152;2024-02-15T06:22:55;9.05;;;5.72;;
30303;SDS011;17112;48.636;10.152;2024-02-15T06:25:21;8.77;;;5.50;;
30303;SDS011;17112;48.636;10.152;2024-02-15T06:27:48;9.40;;;4.95;;
30303;SDS011;17112;48.636;10.152;2024-02-15T06:30:16;4.95;;;4.15;;
30303;SDS011;17112;48.636;10.152;2024-02-15T06:33:00;6.43;;;4.68;;
30303;SDS011;17112;48.636;10.152;2024-02-15T06:35:44;6.63;;;4.55;;
30303;SDS011;17112;48.636;10.152;2024-02-15T06:38:28;8.07;;;4.90;;
30303;SDS011;17112;48.636;10.152;2024-02-15T06:41:13;6.47;;;4.43;;
30303;SDS011;17112;48.636;10.152;2024-02-15T06:43:39;6.80;;;4.70;;
30303;SDS011;17112;48.636;10.152;2024-02-15T06:46:08;9.18;;;4.80;;
30303;SDS011;17112;48.636;10.152;2024-02-15T06:48:35;10.65;;;4.97;;
30303;SDS011;17112;48.636;10.152;2024-02-15T06:51:02;9.95;;;5.68;;
30303;SDS011;17112;48.636;10.152;2024-02-15T06:53:28;10.45;;;5.10;;
30303;SDS011;17112;48.636;10.152;2024-02-15T06:55:55;8.55;;;5.68;;
30303;SDS011;17112;48.636;10.152;2024-02-15T06:58:21;8.60;;;5.13;;
30303;SDS011;17112;48.636;10.152;2024-02-15T07:00:47;10.57;;;5.63;;
30303;SDS011;17112;48.636;10.152;2024-02-15T07:03:14;7.28;;;5.07;;
30303;SDS011;17112;48.636;10.152;2024-02-15T07:05:41;7.45;;;5.00;;
30303;SDS011;17112;48.636;10.152;2024-02-15T07:08:07;7.20;;;4.88;;
30303;SDS011;17112;48.636;10.152;2024-02-15T07:10:38;9.60;;;5.13;;
30303;SDS011;17112;48.636;10.152;2024-02-15T07:13:04;7.60;;;5.07;;
30303;SDS011;17112;48.636;10.152;2024-02-15T07:15:33;8.07;;;4.88;;
30303;SDS011;17112;48.636;10.152;2024-02-15T07:18:04;9.48;;;4.75;;
30303;SDS011;17112;48.636;10.152;2024-02-15T07:20:31;9.00;;;4.93;;
30303;SDS011;17112;48.636;10.152;2024-02-15T07:22:58;10.65;;;4.97;;
30303;SDS011;17112;48.636;10.152;2024-02-15T07:25:24;8.35;;;4.57;;
30303;SDS011;17112;48.636;10.152;2024-02-15T07:27:50;7.00;;;4.57;;
30303;SDS011;17112;48.636;10.152;2024-02-15T07:30:15;7.07;;;4.45;;
30303;SDS011;17112;48.636;10.152;2024-02-15T07:32:41;10.35;;;5.43;;
30303;SDS011;17112;48.636;10.152;2024-02-15T07:35:07;13.07;;;7.82;;
30303;SDS011;17112;48.636;10.152;2024-02-15T07:37:33;13.50;;;8.40;;
30303;SDS011;17112;48.636;10.152;2024-02-15T07:40:00;11.45;;;8.38;;
30303;SDS011;17112;48.636;10.152;2024-02-15T07:42:27;15.35;;;9.90;;
30303;SDS011;17112;48.636;10.152;2024-02-15T07:44:53;17.88;;;9.45;;
30303;SDS011;17112;48.636;10.152;2024-02-15T07:47:20;16.08;;;8.70;;
30303;SDS011;17112;48.636;10.152;2024-02-15T07:49:49;11.20;;;7.70;;
30303;SDS011;17112;48.636;10.152;2024-02-15T07:52:15;10.80;;;7.28;;
30303;SDS011;17112;48.636;10.152;2024-02-15T07:54:41;14.52;;;7.07;;
30303;SDS011;17112;48.636;10.152;2024-02-15T07:57:06;9.10;;;5.85;;
30303;SDS011;17112;48.636;10.152;2024-02-15T07:59:34;10.40;;;5.85;;
30303;SDS011;17112;48.636;10.152;2024-02-15T08:02:00;9.07;;;5.78;;
30303;SDS011;17112;48.636;10.152;2024-02-15T08:04:26;8.27;;;5.28;;
30303;SDS011;17112;48.636;10.152;2024-02-15T08:06:53;8.18;;;5.25;;
30303;SDS011;17112;48.636;10.152;2024-02-15T08:09:20;9.05;;;4.72;;
30303;SDS011;17112;48.636;10.152;2024-02-15T08:11:49;8.65;;;5.00;;
30303;SDS011;17112;48.636;10.152;2024-02-15T08:14:16;8.70;;;4.40;;
30303;SDS011;17112;48.636;10.152;2024-02-15T08:16:41;7.88;;;4.05;;
30303;SDS011;17112;48.636;10.152;2024-02-15T08:19:07;7.53;;;3.97;;
30303;SDS011;17112;48.636;10.152;2024-02-15T08:21:33;5.28;;;3.90;;
30303;SDS011;17112;48.636;10.152;2024-02-15T08:24:02;7.70;;;4.20;;
30303;SDS011;17112;48.636;10.152;2024-02-15T08:26:32;6.82;;;3.58;;
30303;SDS011;17112;48.636;10.152;2024-02-15T08:28:58;7.63;;;4.22;;
30303;SDS011;17112;48.636;10.152;2024-02-15T08:31:24;7.07;;;4.63;;
30303;SDS011;17112;48.636;10.152;2024-02-15T08:33:49;8.00;;;4.28;;
30303;SDS011;17112;48.636;10.152;2024-02-15T08:36:15;6.72;;;4.22;;
30303;SDS011;17112;48.636;10.152;2024-02-15T08:38:41;5.57;;;3.58;;
30303;SDS011;17112;48.636;10.152;2024-02-15T08:41:07;6.70;;;4.20;;
30303;SDS011;17112;48.636;10.152;2024-02-15T08:43:34;10.13;;;3.85;;
30303;SDS011;17112;48.636;10.152;2024-02-15T08:45:59;6.57;;;4.07;;
30303;SDS011;17112;48.636;10.152;2024-02-15T08:48:26;11.18;;;5.35;;
30303;SDS011;17112;48.636;10.152;2024-02-15T08:50:52;7.88;;;4.05;;
30303;SDS011;17112;48.636;10.152;2024-02-15T08:53:18;10.55;;;4.30;;
30303;SDS011;17112;48.636;10.152;2024-02-15T08:55:47;6.80;;;3.22;;
30303;SDS011;17112;48.636;10.152;2024-02-15T08:58:13;4.22;;;3.15;;
30303;SDS011;17112;48.636;10.152;2024-02-15T09:00:39;7.50;;;3.20;;
30303;SDS011;17112;48.636;10.152;2024-02-15T09:03:09;4.75;;;3.03;;
30303;SDS011;17112;48.636;10.152;2024-02-15T09:05:35;5.97;;;3.70;;
30303;SDS011;17112;48.636;10.152;2024-02-15T09:08:00;4.43;;;3.58;;
30303;SDS011;17112;48.636;10.152;2024-02-15T09:10:26;6.35;;;3.58;;
30303;SDS011;17112;48.636;10.152;2024-02-15T09:12:52;7.18;;;3.55;;
30303;SDS011;17112;48.636;10.152;2024-02-15T09:15:17;6.97;;;3.63;;
30303;SDS011;17112;48.636;10.152;2024-02-15T09:17:43;7.50;;;4.25;;
30303;SDS011;17112;48.636;10.152;2024-02-15T09:20:14;7.65;;;3.88;;
30303;SDS011;17112;48.636;10.152;2024-02-15T09:22:51;6.78;;;3.88;;
30303;SDS011;17112;48.636;10.152;2024-02-15T09:25:19;8.68;;;4.00;;
30303;SDS011;17112;48.636;10.152;2024-02-15T09:27:48;9.35;;;4.90;;
30303;SDS011;17112;48.636;10.152;2024-02-15T09:30:15;9.55;;;4.47;;
30303;SDS011;17112;48.636;10.152;2024-02-15T09:32:41;12.15;;;6.18;;
30303;SDS011;17112;48.636;10.152;2024-02-15T09:35:08;12.82;;;5.97;;
30303;SDS011;17112;48.636;10.152;2024-02-15T09:37:38;9.10;;;4.60;;
30303;SDS011;17112;48.636;10.152;2024-02-15T09:40:11;14.07;;;5.20;;
30303;SDS011;17112;48.636;10.152;2024-02-15T09:42:38;11.30;;;5.20;;
30303;SDS011;17112;48.636;10.152;2024-02-15T09:45:07;9.30;;;4.82;;
30303;SDS011;17112;48.636;10.152;2024-02-15T09:47:37;12.10;;;4.20;;
30303;SDS011;17112;48.636;10.152;2024-02-15T09:50:16;7.63;;;4.40;;
30303;SDS011;17112;48.636;10.152;2024-02-15T09:52:52;8.75;;;4.32;;
30303;SDS011;17112;48.636;10.152;2024-02-15T09:55:21;7.97;;;4.30;;
30303;SDS011;17112;48.636;10.152;2024-02-15T09:57:48;7.38;;;3.53;;
30303;SDS011;17112;48.636;10.152;2024-02-15T10:00:15;10.68;;;4.40;;
30303;SDS011;17112;48.636;10.152;2024-02-15T10:02:46;6.97;;;3.97;;
30303;SDS011;17112;48.636;10.152;2024-02-15T10:05:13;7.45;;;4.32;;
30303;SDS011;17112;48.636;10.152;2024-02-15T10:07:39;5.68;;;3.90;;
30303;SDS011;17112;48.636;10.152;2024-02-15T10:10:22;5.47;;;4.07;;
30303;SDS011;17112;48.636;10.152;2024-02-15T10:12:49;8.30;;;3.80;;
30303;SDS011;17112;48.636;10.152;2024-02-15T10:15:37;7.30;;;4.00;;
30303;SDS011;17112;48.636;10.152;2024-02-15T10:18:04;6.85;;;4.00;;
30303;SDS011;17112;48.636;10.152;2024-02-15T10:20:34;6.20;;;4.35;;
30303;SDS011;17112;48.636;10.152;2024-02-15T10:25:33;7.63;;;4.18;;
30303;SDS011;17112;48.636;10.152;2024-02-15T10:28:02;7.75;;;4.45;;
30303;SDS011;17112;48.636;10.152;2024-02-15T10:30:33;7.30;;;4.18;;
30303;SDS011;17112;48.636;10.152;2024-02-15T10:33:00;7.65;;;4.60;;
30303;SDS011;17112;48.636;10.152;2024-02-15T10:35:31;7.82;;;4.22;;
30303;SDS011;17112;48.636;10.152;2024-02-15T10:38:06;7.97;;;4.32;;
30303;SDS011;17112;48.636;10.152;2024-02-15T10:40:36;6.78;;;4.50;;
30303;SDS011;17112;48.636;10.152;2024-02-15T10:43:03;10.52;;;4.15;;
30303;SDS011;17112;48.636;10.152;2024-02-15T10:45:30;11.23;;;4.30;;
30303;SDS011;17112;48.636;10.152;2024-02-15T10:47:57;8.50;;;3.63;;
30303;SDS011;17112;48.636;10.152;2024-02-15T10:50:23;5.38;;;4.15;;
30303;SDS011;17112;48.636;10.152;2024-02-15T10:52:55;6.75;;;3.78;;
30303;SDS011;17112;48.636;10.152;2024-02-15T10:55:24;6.18;;;3.92;;
30303;SDS011;17112;48.636;10.152;2024-02-15T10:58:03;6.50;;;3.63;;
30303;SDS011;17112;48.636;10.152;2024-02-15T11:00:34;8.48;;;3.70;;
30303;SDS011;17112;48.636;10.152;2024-02-15T11:03:05;8.25;;;3.67;;
30303;SDS011;17112;48.636;10.152;2024-02-15T11:05:36;7.03;;;2.88;;
30303;SDS011;17112;48.636;10.152;2024-02-15T11:08:05;7.88;;;3.20;;
30303;SDS011;17112;48.636;10.152;2024-02-15T11:10:36;5.78;;;2.83;;
30303;SDS011;17112;48.636;10.152;2024-02-15T11:13:02;5.75;;;3.08;;
30303;SDS011;17112;48.636;10.152;2024-02-15T11:15:42;4.13;;;2.25;;
30303;SDS011;17112;48.636;10.152;2024-02-15T11:24:26;4.78;;;2.95;;
30303;SDS011;17112;48.636;10.152;2024-02-15T11:27:01;5.05;;;2.90;;
30303;SDS011;17112;48.636;10.152;2024-02-15T11:35:05;2.83;;;1.83;;
30303;SDS011;17112;48.636;10.152;2024-02-15T11:43:09;2.85;;;1.75;;
30303;SDS011;17112;48.636;10.152;2024-02-15T11:45:58;6.50;;;1.98;;
30303;SDS011;17112;48.636;10.152;2024-02-15T11:48:25;4.47;;;2.10;;
30303;SDS011;17112;48.636;10.152;2024-02-15T11:50:51;4.15;;;2.00;;
30303;SDS011;17112;48.636;10.152;2024-02-15T11:53:17;4.75;;;2.20;;
30303;SDS011;17112;48.636;10.152;2024-02-15T11:55:45;5.10;;;2.00;;
30303;SDS011;17112;48.636;10.152;2024-02-15T11:58:12;3.35;;;1.70;;
30303;SDS011;17112;48.636;10.152;2024-02-15T12:00:58;4.63;;;2.20;;
30303;SDS011;17112;48.636;10.152;2024-02-15T12:03:45;3.05;;;1.95;;
30303;SDS011;17112;48.636;10.152;2024-02-15T12:06:35;4.38;;;2.00;;
30303;SDS011;17112;48.636;10.152;2024-02-15T12:09:20;2.63;;;1.70;;
30303;SDS011;17112;48.636;10.152;2024-02-15T12:12:04;2.50;;;1.80;;
30303;SDS011;17112;48.636;10.152;2024-02-15T12:17:32;4.50;;;1.60;;
30303;SDS011;17112;48.636;10.152;2024-02-15T12:20:16;2.22;;;1.60;;
30303;SDS011;17112;48.636;10.152;2024-02-15T12:22:49;2.25;;;1.55;;
30303;SDS011;17112;48.636;10.152;2024-02-15T12:25:17;3.45;;;1.40;;
30303;SDS011;17112;48.636;10.152;2024-02-15T12:27:46;2.78;;;1.55;;
30303;SDS011;17112;48.636;10.152;2024-02-15T12:30:22;3.90;;;1.58;;
30303;SDS011;17112;48.636;10.152;2024-02-15T12:32:51;2.70;;;1.52;;
30303;SDS011;17112;48.636;10.152;2024-02-15T12:35:18;3.35;;;1.30;;
30303;SDS011;17112;48.636;10.152;2024-02-15T12:37:45;1.65;;;1.00;;
30303;SDS011;17112;48.636;10.152;2024-02-15T12:40:12;3.05;;;1.25;;
30303;SDS011;17112;48.636;10.152;2024-02-15T12:42:45;2.10;;;1.10;;
30303;SDS011;17112;48.636;10.152;2024-02-15T12:45:18;6.18;;;1.75;;
30303;SDS011;17112;48.636;10.152;2024-02-15T12:47:54;2.88;;;1.20;;
30303;SDS011;17112;48.636;10.152;2024-02-15T12:50:22;6.18;;;1.50;;
30303;SDS011;17112;48.636;10.152;2024-02-15T12:52:49;1.98;;;1.30;;
30303;SDS011;17112;48.636;10.152;2024-02-15T12:55:19;2.90;;;1.52;;
30303;SDS011;17112;48.636;10.152;2024-02-15T12:57:52;5.80;;;1.20;;
30303;SDS011;17112;48.636;10.152;2024-02-15T13:00:24;2.00;;;1.10;;
30303;SDS011;17112;48.636;10.152;2024-02-15T13:02:53;4.03;;;1.48;;
30303;SDS011;17112;48.636;10.152;2024-02-15T13:05:21;1.48;;;1.10;;
30303;SDS011;17112;48.636;10.152;2024-02-15T13:07:48;4.93;;;1.27;;
30303;SDS011;17112;48.636;10.152;2024-02-15T13:10:15;2.38;;;1.23;;
30303;SDS011;17112;48.636;10.152;2024-02-15T13:12:44;1.75;;;1.17;;
30303;SDS011;17112;48.636;10.152;2024-02-15T13:15:12;4.47;;;1.42;;
30303;SDS011;17112;48.636;10.152;2024-02-15T13:17:46;2.40;;;1.27;;
30303;SDS011;17112;48.636;10.152;2024-02-15T13:20:19;2.63;;;1.30;;
30303;SDS011;17112;48.636;10.152;2024-02-15T13:22:52;2.65;;;1.38;;
30303;SDS011;17112;48.636;10.152;2024-02-15T13:25:18;2.90;;;1.48;;
30303;SDS011;17112;48.636;10.152;2024-02-15T13:27:46;2.70;;;1.58;;
30303;SDS011;17112;48.636;10.152;2024-02-15T13:30:12;2.97;;;1.38;;
30303;SDS011;17112;48.636;10.152;2024-02-15T13:32:40;4.10;;;1.58;;
30303;SDS011;17112;48.636;10.152;2024-02-15T13:35:07;3.65;;;1.45;;
30303;SDS011;17112;48.636;10.152;2024-02-15T13:37:45;2.53;;;1.80;;
30303;SDS011;17112;48.636;10.152;2024-02-15T13:40:22;6.30;;;1.45;;
30303;SDS011;17112;48.636;10.152;2024-02-15T13:42:49;3.30;;;1.60;;
30303;SDS011;17112;48.636;10.152;2024-02-15T13:45:22;2.65;;;1.38;;
30303;SDS011;17112;48.636;10.152;2024-02-15T13:47:50;5.13;;;1.60;;
30303;SDS011;17112;48.636;10.152;2024-02-15T13:50:17;1.88;;;1.55;;
30303;SDS011;17112;48.636;10.152;2024-02-15T13:52:43;2.53;;;1.52;;
30303;SDS011;17112;48.636;10.152;2024-02-15T13:55:10;2.70;;;1.65;;
30303;SDS011;17112;48.636;10.152;2024-02-15T13:57:40;4.50;;;1.40;;
30303;SDS011;17112;48.636;10.152;2024-02-15T14:00:10;2.13;;;1.45;;
30303;SDS011;17112;48.636;10.152;2024-02-15T14:02:50;3.15;;;1.80;;
30303;SDS011;17112;48.636;10.152;2024-02-15T14:05:18;3.67;;;1.42;;
30303;SDS011;17112;48.636;10.152;2024-02-15T14:07:48;4.28;;;1.50;;
30303;SDS011;17112;48.636;10.152;2024-02-15T14:10:19;2.22;;;1.50;;
30303;SDS011;17112;48.636;10.152;2024-02-15T14:12:46;2.13;;;1.45;;
30303;SDS011;17112;48.636;10.152;2024-02-15T14:15:13;3.05;;;1.30;;
30303;SDS011;17112;48.636;10.152;2024-02-15T14:17:42;5.40;;;1.65;;
30303;SDS011;17112;48.636;10.152;2024-02-15T14:20:09;2.60;;;1.40;;
30303;SDS011;17112;48.636;10.152;2024-02-15T14:22:44;6.22;;;1.98;;
30303;SDS011;17112;48.636;10.152;2024-02-15T14:25:14;2.92;;;1.80;;
30303;SDS011;17112;48.636;10.152;2024-02-15T14:27:40;3.28;;;1.70;;
30303;SDS011;17112;48.636;10.152;2024-02-15T14:30:06;3.78;;;1.25;;
30303;SDS011;17112;48.636;10.152;2024-02-15T14:32:51;2.17;;;1.50;;
30303;SDS011;17112;48.636;10.152;2024-02-15T14:35:29;3.67;;;1.60;;
30303;SDS011;17112;48.636;10.152;2024-02-15T14:38:04;2.10;;;1.17;;
30303;SDS011;17112;48.636;10.152;2024-02-15T14:40:38;2.80;;;1.58;;
30303;SDS011;17112;48.636;10.152;2024-02-15T14:43:06;1.85;;;1.50;;
30303;SDS011;17112;48.636;10.152;2024-02-15T14:45:39;3.65;;;1.60;;
30303;SDS011;17112;48.636;10.152;2024-02-15T14:48:09;2.63;;;1.55;;
30303;SDS011;17112;48.636;10.152;2024-02-15T14:50:41;4.35;;;1.30;;
30303;SDS011;17112;48.636;10.152;2024-02-15T14:53:07;2.67;;;1.40;;
30303;SDS011;17112;48.636;10.152;2024-02-15T14:55:33;3.17;;;1.60;;
30303;SDS011;17112;48.636;10.152;2024-02-15T14:57:59;3.80;;;1.65;;
30303;SDS011;17112;48.636;10.152;2024-02-15T15:00:26;3.00;;;1.52;;
30303;SDS011;17112;48.636;10.152;2024-02-15T15:02:52;3.30;;;1.80;;
30303;SDS011;17112;48.636;10.152;2024-02-15T15:05:21;4.05;;;1.70;;